createdAt,value
2023-02-08T00:04:11.281Z,0.15
2023-02-08T00:09:16.391Z,0.02
2023-02-08T00:14:20.242Z,0.02
2023-02-08T00:19:24.021Z,-0.02
2023-02-08T00:24:29.200Z,-0.06
2023-02-08T00:29:33.581Z,-0.09
2023-02-08T00:34:37.399Z,-0.09
2023-02-08T00:39:42.494Z,-0.23
2023-02-08T00:44:46.418Z,-0.23
2023-02-08T00:49:50.166Z,-0.31
2023-02-08T00:54:55.276Z,-0.27
2023-02-08T00:59:59.039Z,-0.36
2023-02-08T01:05:02.820Z,-0.45
2023-02-08T01:10:12.908Z,-0.45
2023-02-08T01:15:17.786Z,-0.41
2023-02-08T01:20:21.722Z,-0.37
2023-02-08T01:25:26.899Z,-0.36
2023-02-08T01:30:30.761Z,-0.33
2023-02-08T01:35:34.594Z,-0.26
2023-02-08T01:40:40.092Z,-0.26
2023-02-08T01:45:44.133Z,-0.25
2023-02-08T01:50:53.585Z,-0.31
2023-02-08T01:56:10.766Z,-0.33
2023-02-08T02:01:15.333Z,-0.34
2023-02-08T02:06:25.103Z,-0.35
2023-02-08T02:11:30.353Z,-0.35
2023-02-08T02:16:34.209Z,-0.38
2023-02-08T02:21:55.740Z,-0.43
2023-02-08T02:27:21.646Z,-0.42
2023-02-08T02:32:40.356Z,-0.51
2023-02-08T02:37:56.424Z,-0.60
2023-02-08T02:43:24.808Z,-0.62
2023-02-08T02:48:39.718Z,-0.61
2023-02-08T02:53:51.097Z,-0.70
2023-02-08T02:58:59.868Z,-0.78
2023-02-08T03:04:15.393Z,-0.76
2023-02-08T03:09:49.211Z,-0.76
2023-02-08T03:15:03.929Z,-0.80
2023-02-08T03:20:13.426Z,-0.80
2023-02-08T03:25:22.142Z,-0.78
2023-02-08T03:30:31.951Z,-0.81
2023-02-08T03:35:45.210Z,-0.80
2023-02-08T03:40:52.938Z,-0.80
2023-02-08T03:46:03.100Z,-0.82
2023-02-08T03:51:10.073Z,-0.83
2023-02-08T03:56:19.976Z,-0.87
2023-02-08T04:01:29.653Z,-0.92
2023-02-08T04:06:34.850Z,-0.91
2023-02-08T04:11:38.605Z,-0.94
2023-02-08T04:16:42.337Z,-0.94
2023-02-08T04:21:47.593Z,-0.95
2023-02-08T04:26:52.570Z,-0.99
2023-02-08T04:31:56.506Z,-0.99
2023-02-08T04:37:01.668Z,-1.01
2023-02-08T04:42:05.613Z,-1.02
2023-02-08T04:47:09.689Z,-1.06
2023-02-08T04:52:14.802Z,-1.13
2023-02-08T04:57:18.568Z,-1.11
2023-02-08T05:02:22.293Z,-1.17
2023-02-08T05:07:27.369Z,-1.27
2023-02-08T05:12:31.194Z,-1.26
2023-02-08T05:17:34.997Z,-1.26
2023-02-08T05:22:40.197Z,-1.27
2023-02-08T05:27:43.924Z,-1.28
2023-02-08T05:32:47.723Z,-1.32
2023-02-08T05:37:52.928Z,-1.32
2023-02-08T05:42:56.732Z,-1.32
2023-02-08T05:48:00.542Z,-1.32
2023-02-08T05:53:05.669Z,-1.36
2023-02-08T05:58:09.709Z,-1.33
2023-02-08T06:03:13.678Z,-1.33
2023-02-08T06:08:19.017Z,-1.34
2023-02-08T06:13:22.821Z,-1.31
2023-02-08T06:18:26.804Z,-1.32
2023-02-08T06:23:31.919Z,-1.37
2023-02-08T06:28:35.661Z,-1.34
2023-02-08T06:33:39.401Z,-1.41
2023-02-08T06:38:45.029Z,-1.52
2023-02-08T06:43:48.780Z,-1.51
2023-02-08T06:48:52.563Z,-1.54
2023-02-08T06:53:57.716Z,-1.55
2023-02-08T06:59:01.431Z,-1.55
2023-02-08T07:04:05.529Z,-1.59
2023-02-08T07:09:10.645Z,-1.58
2023-02-08T07:14:15.708Z,-1.62
2023-02-08T07:19:19.449Z,-1.55
2023-02-08T07:24:24.915Z,-1.53
2023-02-08T07:29:30.615Z,-1.53
2023-02-08T07:34:36.755Z,-1.49
2023-02-08T07:39:42.141Z,-1.51
2023-02-08T07:44:46.102Z,-1.53
2023-02-08T07:49:49.840Z,-1.41
2023-02-08T07:54:54.976Z,-1.39
2023-02-08T07:59:58.738Z,-1.29
2023-02-08T08:05:02.519Z,-1.30
2023-02-08T08:10:08.254Z,-1.18
2023-02-08T08:15:12.089Z,-1.01
2023-02-08T08:20:15.821Z,-0.92
2023-02-08T08:25:21.000Z,-0.81
2023-02-08T08:30:25.088Z,-0.70
2023-02-08T08:35:28.941Z,-0.57
2023-02-08T08:40:34.162Z,-0.49
2023-02-08T08:45:38.261Z,-0.34
2023-02-08T08:50:43.279Z,-0.22
2023-02-08T08:55:48.485Z,-0.12
2023-02-08T09:00:52.274Z,0.02
2023-02-08T09:05:56.148Z,0.15
2023-02-08T09:11:07.144Z,0.28
2023-02-08T09:16:14.592Z,0.37
2023-02-08T09:21:20.921Z,0.49
2023-02-08T09:26:26.601Z,0.59
2023-02-08T09:31:32.673Z,0.70
2023-02-08T09:36:38.429Z,0.85
2023-02-08T09:42:04.577Z,1.06
2023-02-08T09:47:14.714Z,1.21
2023-02-08T09:52:25.215Z,1.38
2023-02-08T09:57:36.188Z,1.57
2023-02-08T10:02:42.918Z,1.74
2023-02-08T10:07:47.071Z,1.93
2023-02-08T10:13:00.105Z,2.11
2023-02-08T10:18:24.439Z,2.30
2023-02-08T10:23:56.478Z,2.48
2023-02-08T10:29:25.934Z,2.59
2023-02-08T10:34:39.733Z,2.83
2023-02-08T10:39:44.150Z,3.08
2023-02-08T10:44:57.527Z,3.39
2023-02-08T10:50:03.983Z,3.78
2023-02-08T10:55:14.664Z,4.14
2023-02-08T11:00:23.380Z,4.48
2023-02-08T11:05:35.096Z,4.91
2023-02-08T11:10:40.069Z,5.42
2023-02-08T11:15:48.609Z,5.86
2023-02-08T11:20:54.605Z,6.33
2023-02-08T11:26:18.177Z,6.89
2023-02-08T11:31:23.263Z,7.72
2023-02-08T11:36:27.830Z,8.96
2023-02-08T11:41:31.928Z,10.31
2023-02-08T11:46:39.503Z,11.90
2023-02-08T11:51:43.328Z,12.78
2023-02-08T11:57:02.894Z,13.79
2023-02-08T12:02:32.351Z,14.53
2023-02-08T12:07:48.873Z,14.61
2023-02-08T12:13:10.104Z,15.43
2023-02-08T12:18:36.567Z,15.88
2023-02-08T12:23:49.597Z,16.45
2023-02-08T12:29:10.964Z,16.66
2023-02-08T12:34:23.686Z,17.44
2023-02-08T12:40:00.735Z,17.76
2023-02-08T12:45:28.893Z,18.00
2023-02-08T12:50:42.572Z,17.96
2023-02-08T12:55:49.887Z,17.98
2023-02-08T13:00:56.825Z,18.74
2023-02-08T13:06:07.708Z,18.87
2023-02-08T13:11:20.103Z,18.44
2023-02-08T13:16:27.290Z,18.91
2023-02-08T13:21:38.071Z,19.00
2023-02-08T13:26:42.171Z,19.60
2023-02-08T13:31:49.745Z,18.92
2023-02-08T13:36:59.538Z,19.26
2023-02-08T13:42:05.717Z,19.92
2023-02-08T13:47:25.589Z,19.53
2023-02-08T13:52:53.687Z,20.26
2023-02-08T13:57:58.930Z,20.40
2023-02-08T14:03:04.564Z,20.61
2023-02-08T14:08:19.965Z,19.86
2023-02-08T14:13:30.222Z,18.63
2023-02-08T14:18:33.977Z,18.76
2023-02-08T14:23:40.819Z,18.85
2023-02-08T14:28:48.814Z,20.00
2023-02-08T14:33:54.411Z,19.93
2023-02-08T14:39:29.028Z,19.67
2023-02-08T14:44:57.156Z,19.17
2023-02-08T14:50:09.655Z,18.17
2023-02-08T14:55:20.721Z,17.56
2023-02-08T15:00:27.946Z,17.13
2023-02-08T15:05:38.089Z,16.61
2023-02-08T15:10:45.091Z,17.11
2023-02-08T15:15:53.862Z,17.83
2023-02-08T15:21:03.439Z,17.39
2023-02-08T15:26:21.999Z,17.36
2023-02-08T15:31:31.799Z,16.08
2023-02-08T15:36:38.497Z,14.97
2023-02-08T15:41:43.616Z,13.67
2023-02-08T15:46:48.528Z,12.78
2023-02-08T15:51:54.654Z,12.34
2023-02-08T15:57:03.878Z,11.72
2023-02-08T16:02:21.290Z,11.24
2023-02-08T16:07:29.471Z,10.91
2023-02-08T16:12:35.853Z,10.65
2023-02-08T16:17:44.719Z,9.97
2023-02-08T16:22:56.844Z,10.27
2023-02-08T16:28:02.406Z,10.12
2023-02-08T16:33:08.776Z,9.83
2023-02-08T16:38:21.324Z,9.33
2023-02-08T16:43:31.721Z,9.41
2023-02-08T16:48:37.545Z,9.36
2023-02-08T16:53:42.796Z,8.98
2023-02-08T16:58:48.057Z,8.77
2023-02-08T17:03:53.000Z,8.80
2023-02-08T17:08:57.123Z,8.64
2023-02-08T17:14:02.230Z,8.39
2023-02-08T17:19:06.050Z,8.00
2023-02-08T17:24:09.868Z,8.11
2023-02-08T17:29:15.434Z,7.98
2023-02-08T17:34:19.249Z,7.65
2023-02-08T17:39:23.099Z,7.62
2023-02-08T17:44:28.376Z,7.28
2023-02-08T17:49:32.133Z,7.27
2023-02-08T17:54:37.659Z,7.23
2023-02-08T17:59:43.245Z,7.10
2023-02-08T18:04:47.276Z,6.89
2023-02-08T18:09:51.042Z,6.64
2023-02-08T18:14:56.145Z,6.74
2023-02-08T18:20:02.178Z,6.64
2023-02-08T18:25:07.995Z,6.45
2023-02-08T18:30:14.523Z,6.17
2023-02-08T18:35:18.407Z,6.26
2023-02-08T18:40:22.971Z,6.19
2023-02-08T18:45:28.247Z,6.07
2023-02-08T18:50:32.309Z,5.93
2023-02-08T18:55:36.150Z,5.72
2023-02-08T19:00:41.844Z,5.55
2023-02-08T19:05:46.442Z,5.40
2023-02-08T19:10:50.474Z,5.23
2023-02-08T19:15:55.927Z,5.02
2023-02-08T19:21:04.972Z,4.90
2023-02-08T19:26:17.241Z,4.69
2023-02-08T19:31:24.519Z,4.60
2023-02-08T19:36:30.792Z,4.49
2023-02-08T19:41:37.096Z,4.35
2023-02-08T19:46:44.266Z,4.18
2023-02-08T19:51:48.286Z,4.06
2023-02-08T19:56:54.809Z,3.98
2023-02-08T20:02:01.810Z,3.88
2023-02-08T20:07:06.414Z,3.80
2023-02-08T20:12:10.150Z,3.64
2023-02-08T20:17:15.286Z,3.70
2023-02-08T20:22:19.427Z,3.64
2023-02-08T20:27:23.227Z,3.62
2023-02-08T20:32:28.861Z,3.55
2023-02-08T20:37:32.925Z,3.48
2023-02-08T20:42:37.229Z,3.48
2023-02-08T20:47:46.669Z,3.47
2023-02-08T20:52:50.709Z,3.40
2023-02-08T20:57:54.459Z,3.30
2023-02-08T21:02:59.590Z,3.16
2023-02-08T21:08:03.534Z,3.10
2023-02-08T21:13:07.312Z,3.03
2023-02-08T21:18:12.660Z,3.02
2023-02-08T21:23:17.129Z,2.98
2023-02-08T21:28:21.226Z,2.93
2023-02-08T21:33:26.772Z,2.90
2023-02-08T21:38:30.906Z,2.90
2023-02-08T21:43:34.681Z,2.79
2023-02-08T21:48:53.804Z,2.72
2023-02-08T21:54:14.860Z,2.66
2023-02-08T21:59:18.581Z,2.59
2023-02-08T22:04:23.777Z,2.51
2023-02-08T22:09:29.102Z,2.50
2023-02-08T22:14:35.080Z,2.38
2023-02-08T22:19:40.623Z,2.42
2023-02-08T22:24:44.422Z,2.34
2023-02-08T22:29:48.161Z,2.29
2023-02-08T22:34:53.542Z,2.28
2023-02-08T22:39:57.405Z,2.15
2023-02-08T22:45:01.210Z,2.07
2023-02-08T22:50:07.859Z,1.96
2023-02-08T22:55:12.368Z,1.93
2023-02-08T23:00:18.388Z,1.88
2023-02-08T23:05:23.550Z,1.85
2023-02-08T23:10:29.558Z,1.78
2023-02-08T23:15:38.815Z,1.66
2023-02-08T23:20:44.288Z,1.57
2023-02-08T23:25:48.975Z,1.44
2023-02-08T23:30:52.826Z,1.46
2023-02-08T23:35:57.932Z,1.40
2023-02-08T23:41:04.028Z,1.40
2023-02-08T23:46:08.686Z,1.35
2023-02-08T23:51:13.832Z,1.40
2023-02-08T23:56:20.662Z,1.39
